sensor_id;sensor_type;location;lat;lon;timestamp;P1;durP1;ratioP1;P2;durP2;ratioP2
46348;SDS011;32057;47.830;19.046;2023-05-07T00:00:20;1.63;;;1.52;;
46348;SDS011;32057;47.830;19.046;2023-05-07T00:02:46;2.10;;;1.90;;
46348;SDS011;32057;47.830;19.046;2023-05-07T00:05:12;3.17;;;2.17;;
46348;SDS011;32057;47.830;19.046;2023-05-07T00:07:37;1.88;;;1.60;;
46348;SDS011;32057;47.830;19.046;2023-05-07T00:10:03;2.83;;;2.35;;
46348;SDS011;32057;47.830;19.046;2023-05-07T00:12:31;2.42;;;1.98;;
46348;SDS011;32057;47.830;19.046;2023-05-07T00:14:58;1.70;;;1.60;;
46348;SDS011;32057;47.830;19.046;2023-05-07T00:17:24;4.22;;;2.90;;
46348;SDS011;32057;47.830;19.046;2023-05-07T00:19:49;2.70;;;2.50;;
46348;SDS011;32057;47.830;19.046;2023-05-07T00:22:15;2.15;;;1.98;;
46348;SDS011;32057;47.830;19.046;2023-05-07T00:24:40;3.65;;;2.90;;
46348;SDS011;32057;47.830;19.046;2023-05-07T00:27:05;3.38;;;2.05;;
46348;SDS011;32057;47.830;19.046;2023-05-07T00:29:31;1.83;;;1.73;;
46348;SDS011;32057;47.830;19.046;2023-05-07T00:31:56;3.08;;;2.13;;
46348;SDS011;32057;47.830;19.046;2023-05-07T00:34:22;13.23;;;3.53;;
46348;SDS011;32057;47.830;19.046;2023-05-07T00:36:47;2.08;;;1.90;;
46348;SDS011;32057;47.830;19.046;2023-05-07T00:39:13;3.08;;;2.85;;
46348;SDS011;32057;47.830;19.046;2023-05-07T00:41:38;2.95;;;2.67;;
46348;SDS011;32057;47.830;19.046;2023-05-07T00:44:04;3.75;;;2.17;;
46348;SDS011;32057;47.830;19.046;2023-05-07T00:46:29;1.80;;;1.70;;
46348;SDS011;32057;47.830;19.046;2023-05-07T00:48:55;2.38;;;2.00;;
46348;SDS011;32057;47.830;19.046;2023-05-07T00:51:22;1.55;;;1.45;;
46348;SDS011;32057;47.830;19.046;2023-05-07T00:53:50;3.00;;;2.67;;
46348;SDS011;32057;47.830;19.046;2023-05-07T00:56:15;3.10;;;2.80;;
46348;SDS011;32057;47.830;19.046;2023-05-07T00:58:41;2.80;;;2.30;;
46348;SDS011;32057;47.830;19.046;2023-05-07T01:01:07;2.17;;;1.98;;
46348;SDS011;32057;47.830;19.046;2023-05-07T01:03:32;1.92;;;1.83;;
46348;SDS011;32057;47.830;19.046;2023-05-07T01:05:58;2.55;;;2.35;;
46348;SDS011;32057;47.830;19.046;2023-05-07T01:08:26;2.50;;;2.30;;
46348;SDS011;32057;47.830;19.046;2023-05-07T01:10:55;2.13;;;1.83;;
46348;SDS011;32057;47.830;19.046;2023-05-07T01:13:21;1.95;;;1.85;;
46348;SDS011;32057;47.830;19.046;2023-05-07T01:15:48;2.20;;;1.90;;
46348;SDS011;32057;47.830;19.046;2023-05-07T01:18:13;2.13;;;1.92;;
46348;SDS011;32057;47.830;19.046;2023-05-07T01:20:40;4.97;;;1.60;;
46348;SDS011;32057;47.830;19.046;2023-05-07T01:23:06;1.85;;;1.75;;
46348;SDS011;32057;47.830;19.046;2023-05-07T01:25:32;2.45;;;2.25;;
46348;SDS011;32057;47.830;19.046;2023-05-07T01:27:57;2.47;;;2.28;;
46348;SDS011;32057;47.830;19.046;2023-05-07T01:30:25;1.45;;;1.27;;
46348;SDS011;32057;47.830;19.046;2023-05-07T01:32:53;1.60;;;1.38;;
46348;SDS011;32057;47.830;19.046;2023-05-07T01:35:22;2.28;;;2.00;;
46348;SDS011;32057;47.830;19.046;2023-05-07T01:37:51;1.90;;;1.80;;
46348;SDS011;32057;47.830;19.046;2023-05-07T01:40:18;3.15;;;2.92;;
46348;SDS011;32057;47.830;19.046;2023-05-07T01:42:44;1.88;;;1.77;;
46348;SDS011;32057;47.830;19.046;2023-05-07T01:45:10;3.35;;;3.05;;
46348;SDS011;32057;47.830;19.046;2023-05-07T01:47:36;2.25;;;1.70;;
46348;SDS011;32057;47.830;19.046;2023-05-07T01:50:03;2.13;;;1.83;;
46348;SDS011;32057;47.830;19.046;2023-05-07T01:52:30;2.58;;;2.30;;
46348;SDS011;32057;47.830;19.046;2023-05-07T01:54:56;2.42;;;2.20;;
46348;SDS011;32057;47.830;19.046;2023-05-07T01:57:22;2.03;;;1.83;;
46348;SDS011;32057;47.830;19.046;2023-05-07T01:59:47;1.83;;;1.73;;
46348;SDS011;32057;47.830;19.046;2023-05-07T02:02:13;3.13;;;2.85;;
46348;SDS011;32057;47.830;19.046;2023-05-07T02:04:38;2.55;;;2.35;;
46348;SDS011;32057;47.830;19.046;2023-05-07T02:07:03;1.77;;;1.67;;
46348;SDS011;32057;47.830;19.046;2023-05-07T02:09:29;2.80;;;2.42;;
46348;SDS011;32057;47.830;19.046;2023-05-07T02:11:55;2.22;;;1.40;;
46348;SDS011;32057;47.830;19.046;2023-05-07T02:14:20;1.50;;;1.40;;
46348;SDS011;32057;47.830;19.046;2023-05-07T02:16:45;3.05;;;2.10;;
46348;SDS011;32057;47.830;19.046;2023-05-07T02:19:11;1.90;;;1.75;;
46348;SDS011;32057;47.830;19.046;2023-05-07T02:21:36;2.40;;;1.85;;
46348;SDS011;32057;47.830;19.046;2023-05-07T02:24:02;2.08;;;1.98;;
46348;SDS011;32057;47.830;19.046;2023-05-07T02:26:27;1.30;;;1.20;;
46348;SDS011;32057;47.830;19.046;2023-05-07T02:28:53;2.08;;;1.90;;
46348;SDS011;32057;47.830;19.046;2023-05-07T02:31:18;1.60;;;1.48;;
46348;SDS011;32057;47.830;19.046;2023-05-07T02:33:44;2.40;;;1.88;;
46348;SDS011;32057;47.830;19.046;2023-05-07T02:36:10;1.77;;;1.67;;
46348;SDS011;32057;47.830;19.046;2023-05-07T02:38:37;2.20;;;1.77;;
46348;SDS011;32057;47.830;19.046;2023-05-07T02:41:03;2.20;;;2.00;;
46348;SDS011;32057;47.830;19.046;2023-05-07T02:43:28;1.60;;;1.50;;
46348;SDS011;32057;47.830;19.046;2023-05-07T02:46:00;1.70;;;1.60;;
46348;SDS011;32057;47.830;19.046;2023-05-07T02:48:27;2.38;;;2.17;;
46348;SDS011;32057;47.830;19.046;2023-05-07T02:50:53;2.13;;;1.67;;
46348;SDS011;32057;47.830;19.046;2023-05-07T02:53:18;2.38;;;2.15;;
46348;SDS011;32057;47.830;19.046;2023-05-07T02:55:43;2.55;;;1.83;;
46348;SDS011;32057;47.830;19.046;2023-05-07T02:58:09;1.50;;;1.40;;
46348;SDS011;32057;47.830;19.046;2023-05-07T03:00:34;1.40;;;1.30;;
46348;SDS011;32057;47.830;19.046;2023-05-07T03:03:00;1.83;;;1.73;;
46348;SDS011;32057;47.830;19.046;2023-05-07T03:05:25;1.55;;;1.45;;
46348;SDS011;32057;47.830;19.046;2023-05-07T03:07:51;1.77;;;1.65;;
46348;SDS011;32057;47.830;19.046;2023-05-07T03:10:16;1.73;;;1.63;;
46348;SDS011;32057;47.830;19.046;2023-05-07T03:12:41;2.45;;;2.17;;
46348;SDS011;32057;47.830;19.046;2023-05-07T03:15:07;2.35;;;1.40;;
46348;SDS011;32057;47.830;19.046;2023-05-07T03:17:33;2.50;;;2.10;;
46348;SDS011;32057;47.830;19.046;2023-05-07T03:19:58;2.03;;;1.80;;
46348;SDS011;32057;47.830;19.046;2023-05-07T03:22:24;1.83;;;1.73;;
46348;SDS011;32057;47.830;19.046;2023-05-07T03:24:49;1.67;;;1.58;;
46348;SDS011;32057;47.830;19.046;2023-05-07T03:27:15;1.42;;;1.33;;
46348;SDS011;32057;47.830;19.046;2023-05-07T03:29:40;2.40;;;1.75;;
46348;SDS011;32057;47.830;19.046;2023-05-07T03:32:06;2.17;;;1.80;;
46348;SDS011;32057;47.830;19.046;2023-05-07T03:34:31;2.30;;;2.10;;
46348;SDS011;32057;47.830;19.046;2023-05-07T03:36:56;2.28;;;2.08;;
46348;SDS011;32057;47.830;19.046;2023-05-07T03:39:22;1.70;;;1.60;;
46348;SDS011;32057;47.830;19.046;2023-05-07T03:41:47;1.77;;;1.67;;
46348;SDS011;32057;47.830;19.046;2023-05-07T03:44:13;1.60;;;1.50;;
46348;SDS011;32057;47.830;19.046;2023-05-07T03:46:38;2.63;;;2.42;;
46348;SDS011;32057;47.830;19.046;2023-05-07T03:49:04;1.98;;;1.85;;
46348;SDS011;32057;47.830;19.046;2023-05-07T03:51:29;2.50;;;2.35;;
46348;SDS011;32057;47.830;19.046;2023-05-07T03:53:55;1.67;;;1.58;;
46348;SDS011;32057;47.830;19.046;2023-05-07T03:56:22;7.15;;;2.08;;
46348;SDS011;32057;47.830;19.046;2023-05-07T03:58:48;3.42;;;2.00;;
46348;SDS011;32057;47.830;19.046;2023-05-07T04:01:13;4.68;;;3.28;;
46348;SDS011;32057;47.830;19.046;2023-05-07T04:03:39;6.20;;;1.98;;
46348;SDS011;32057;47.830;19.046;2023-05-07T04:06:04;1.58;;;1.48;;
46348;SDS011;32057;47.830;19.046;2023-05-07T04:08:30;1.50;;;1.40;;
46348;SDS011;32057;47.830;19.046;2023-05-07T04:10:58;1.70;;;1.55;;
46348;SDS011;32057;47.830;19.046;2023-05-07T04:13:24;3.58;;;2.95;;
46348;SDS011;32057;47.830;19.046;2023-05-07T04:15:51;2.75;;;2.53;;
46348;SDS011;32057;47.830;19.046;2023-05-07T04:18:16;2.38;;;2.17;;
46348;SDS011;32057;47.830;19.046;2023-05-07T04:20:42;2.03;;;1.80;;
46348;SDS011;32057;47.830;19.046;2023-05-07T04:23:08;2.17;;;2.05;;
46348;SDS011;32057;47.830;19.046;2023-05-07T04:25:33;3.90;;;2.72;;
46348;SDS011;32057;47.830;19.046;2023-05-07T04:27:59;1.90;;;1.80;;
46348;SDS011;32057;47.830;19.046;2023-05-07T04:30:25;1.98;;;1.73;;
46348;SDS011;32057;47.830;19.046;2023-05-07T04:32:50;1.98;;;1.88;;
46348;SDS011;32057;47.830;19.046;2023-05-07T04:35:16;2.15;;;1.95;;
46348;SDS011;32057;47.830;19.046;2023-05-07T04:37:42;2.42;;;2.15;;
46348;SDS011;32057;47.830;19.046;2023-05-07T04:40:07;2.08;;;1.75;;
46348;SDS011;32057;47.830;19.046;2023-05-07T04:42:33;1.80;;;1.70;;
46348;SDS011;32057;47.830;19.046;2023-05-07T04:44:59;1.83;;;1.73;;
46348;SDS011;32057;47.830;19.046;2023-05-07T04:47:25;1.70;;;1.60;;
46348;SDS011;32057;47.830;19.046;2023-05-07T04:49:50;1.90;;;1.75;;
46348;SDS011;32057;47.830;19.046;2023-05-07T04:52:16;2.55;;;1.63;;
46348;SDS011;32057;47.830;19.046;2023-05-07T04:54:41;2.17;;;1.73;;
46348;SDS011;32057;47.830;19.046;2023-05-07T04:57:07;2.45;;;2.17;;
46348;SDS011;32057;47.830;19.046;2023-05-07T04:59:33;3.75;;;2.40;;
46348;SDS011;32057;47.830;19.046;2023-05-07T05:01:58;1.80;;;1.70;;
46348;SDS011;32057;47.830;19.046;2023-05-07T05:04:23;2.92;;;2.63;;
46348;SDS011;32057;47.830;19.046;2023-05-07T05:06:49;2.55;;;2.35;;
46348;SDS011;32057;47.830;19.046;2023-05-07T05:09:15;3.65;;;2.80;;
46348;SDS011;32057;47.830;19.046;2023-05-07T05:11:41;3.65;;;2.72;;
46348;SDS011;32057;47.830;19.046;2023-05-07T05:14:06;3.65;;;2.90;;
46348;SDS011;32057;47.830;19.046;2023-05-07T05:16:32;3.80;;;3.30;;
46348;SDS011;32057;47.830;19.046;2023-05-07T05:18:57;2.30;;;2.10;;
46348;SDS011;32057;47.830;19.046;2023-05-07T05:21:23;2.88;;;1.90;;
46348;SDS011;32057;47.830;19.046;2023-05-07T05:23:49;3.92;;;3.20;;
46348;SDS011;32057;47.830;19.046;2023-05-07T05:26:14;3.22;;;2.63;;
46348;SDS011;32057;47.830;19.046;2023-05-07T05:28:39;3.50;;;2.70;;
46348;SDS011;32057;47.830;19.046;2023-05-07T05:31:05;3.08;;;2.75;;
46348;SDS011;32057;47.830;19.046;2023-05-07T05:33:30;3.83;;;3.05;;
46348;SDS011;32057;47.830;19.046;2023-05-07T05:35:56;3.88;;;2.85;;
46348;SDS011;32057;47.830;19.046;2023-05-07T05:38:21;3.80;;;3.00;;
46348;SDS011;32057;47.830;19.046;2023-05-07T05:40:47;4.07;;;3.53;;
46348;SDS011;32057;47.830;19.046;2023-05-07T05:43:13;4.13;;;2.50;;
46348;SDS011;32057;47.830;19.046;2023-05-07T05:45:39;4.70;;;3.55;;
46348;SDS011;32057;47.830;19.046;2023-05-07T05:48:05;4.10;;;2.90;;
46348;SDS011;32057;47.830;19.046;2023-05-07T05:50:30;3.38;;;2.78;;
46348;SDS011;32057;47.830;19.046;2023-05-07T05:52:56;3.30;;;3.00;;
46348;SDS011;32057;47.830;19.046;2023-05-07T05:55:22;3.88;;;2.70;;
46348;SDS011;32057;47.830;19.046;2023-05-07T05:57:48;2.88;;;2.42;;
46348;SDS011;32057;47.830;19.046;2023-05-07T06:00:15;3.05;;;2.75;;
46348;SDS011;32057;47.830;19.046;2023-05-07T06:02:41;3.67;;;2.65;;
46348;SDS011;32057;47.830;19.046;2023-05-07T06:05:07;2.85;;;2.60;;
46348;SDS011;32057;47.830;19.046;2023-05-07T06:07:33;3.25;;;2.97;;
46348;SDS011;32057;47.830;19.046;2023-05-07T06:09:59;2.80;;;2.60;;
46348;SDS011;32057;47.830;19.046;2023-05-07T06:12:25;2.88;;;2.63;;
46348;SDS011;32057;47.830;19.046;2023-05-07T06:14:50;3.63;;;3.10;;
46348;SDS011;32057;47.830;19.046;2023-05-07T06:17:16;3.30;;;2.40;;
46348;SDS011;32057;47.830;19.046;2023-05-07T06:19:41;3.40;;;2.25;;
46348;SDS011;32057;47.830;19.046;2023-05-07T06:22:07;2.63;;;2.42;;
46348;SDS011;32057;47.830;19.046;2023-05-07T06:24:32;2.10;;;1.67;;
46348;SDS011;32057;47.830;19.046;2023-05-07T06:26:57;1.67;;;1.58;;
46348;SDS011;32057;47.830;19.046;2023-05-07T06:29:23;1.13;;;1.02;;
46348;SDS011;32057;47.830;19.046;2023-05-07T06:31:51;1.92;;;1.83;;
46348;SDS011;32057;47.830;19.046;2023-05-07T06:34:17;1.60;;;1.50;;
46348;SDS011;32057;47.830;19.046;2023-05-07T06:36:43;2.58;;;1.63;;
46348;SDS011;32057;47.830;19.046;2023-05-07T06:39:08;1.30;;;1.20;;
46348;SDS011;32057;47.830;19.046;2023-05-07T06:41:34;1.40;;;1.15;;
46348;SDS011;32057;47.830;19.046;2023-05-07T06:44:00;1.55;;;1.45;;
46348;SDS011;32057;47.830;19.046;2023-05-07T06:46:27;1.98;;;1.80;;
46348;SDS011;32057;47.830;19.046;2023-05-07T06:48:52;3.13;;;1.65;;
46348;SDS011;32057;47.830;19.046;2023-05-07T06:51:18;1.60;;;1.50;;
46348;SDS011;32057;47.830;19.046;2023-05-07T06:53:44;1.35;;;1.27;;
46348;SDS011;32057;47.830;19.046;2023-05-07T06:56:26;1.55;;;1.45;;
46348;SDS011;32057;47.830;19.046;2023-05-07T06:59:14;1.05;;;1.02;;
46348;SDS011;32057;47.830;19.046;2023-05-07T07:01:39;1.95;;;1.65;;
46348;SDS011;32057;47.830;19.046;2023-05-07T07:04:05;1.17;;;1.08;;
46348;SDS011;32057;47.830;19.046;2023-05-07T07:06:30;1.33;;;1.23;;
46348;SDS011;32057;47.830;19.046;2023-05-07T07:08:57;1.10;;;1.10;;
46348;SDS011;32057;47.830;19.046;2023-05-07T07:11:22;1.83;;;1.70;;
46348;SDS011;32057;47.830;19.046;2023-05-07T07:13:48;3.13;;;1.98;;
46348;SDS011;32057;47.830;19.046;2023-05-07T07:16:13;1.67;;;1.58;;
46348;SDS011;32057;47.830;19.046;2023-05-07T07:18:39;1.50;;;1.40;;
46348;SDS011;32057;47.830;19.046;2023-05-07T07:21:05;1.40;;;1.30;;
46348;SDS011;32057;47.830;19.046;2023-05-07T07:23:30;1.67;;;1.58;;
46348;SDS011;32057;47.830;19.046;2023-05-07T07:25:55;1.05;;;1.00;;
46348;SDS011;32057;47.830;19.046;2023-05-07T07:28:21;1.35;;;1.25;;
46348;SDS011;32057;47.830;19.046;2023-05-07T07:30:47;1.80;;;1.70;;
46348;SDS011;32057;47.830;19.046;2023-05-07T07:33:12;1.67;;;1.58;;
46348;SDS011;32057;47.830;19.046;2023-05-07T07:35:38;1.70;;;1.60;;
46348;SDS011;32057;47.830;19.046;2023-05-07T07:38:03;1.50;;;1.40;;
46348;SDS011;32057;47.830;19.046;2023-05-07T07:40:29;1.00;;;0.90;;
46348;SDS011;32057;47.830;19.046;2023-05-07T07:42:56;1.05;;;0.95;;
46348;SDS011;32057;47.830;19.046;2023-05-07T07:45:22;1.70;;;1.48;;
46348;SDS011;32057;47.830;19.046;2023-05-07T07:47:47;1.15;;;1.10;;
46348;SDS011;32057;47.830;19.046;2023-05-07T07:50:13;0.98;;;0.90;;
46348;SDS011;32057;47.830;19.046;2023-05-07T07:52:38;1.13;;;1.10;;
46348;SDS011;32057;47.830;19.046;2023-05-07T07:55:08;2.30;;;1.50;;
46348;SDS011;32057;47.830;19.046;2023-05-07T07:57:34;1.95;;;1.75;;
46348;SDS011;32057;47.830;19.046;2023-05-07T08:00:01;1.23;;;1.23;;
46348;SDS011;32057;47.830;19.046;2023-05-07T08:02:26;1.15;;;1.10;;
46348;SDS011;32057;47.830;19.046;2023-05-07T08:04:52;1.80;;;1.65;;
46348;SDS011;32057;47.830;19.046;2023-05-07T08:07:17;1.27;;;1.17;;
46348;SDS011;32057;47.830;19.046;2023-05-07T08:09:45;1.15;;;0.98;;
46348;SDS011;32057;47.830;19.046;2023-05-07T08:12:11;1.23;;;1.13;;
46348;SDS011;32057;47.830;19.046;2023-05-07T08:14:36;3.40;;;2.47;;
46348;SDS011;32057;47.830;19.046;2023-05-07T08:17:02;15.60;;;2.85;;
46348;SDS011;32057;47.830;19.046;2023-05-07T08:19:28;3.33;;;3.13;;
46348;SDS011;32057;47.830;19.046;2023-05-07T08:21:53;1.40;;;1.27;;
46348;SDS011;32057;47.830;19.046;2023-05-07T08:24:18;0.77;;;0.77;;
46348;SDS011;32057;47.830;19.046;2023-05-07T08:26:44;3.63;;;1.17;;
46348;SDS011;32057;47.830;19.046;2023-05-07T08:29:10;1.65;;;1.55;;
46348;SDS011;32057;47.830;19.046;2023-05-07T08:31:35;7.35;;;1.33;;
46348;SDS011;32057;47.830;19.046;2023-05-07T08:34:01;1.13;;;1.02;;
46348;SDS011;32057;47.830;19.046;2023-05-07T08:36:26;1.42;;;1.33;;
46348;SDS011;32057;47.830;19.046;2023-05-07T08:38:53;0.70;;;0.70;;
46348;SDS011;32057;47.830;19.046;2023-05-07T08:41:19;1.33;;;1.23;;
46348;SDS011;32057;47.830;19.046;2023-05-07T08:43:48;0.93;;;0.93;;
46348;SDS011;32057;47.830;19.046;2023-05-07T08:46:21;1.05;;;1.02;;
46348;SDS011;32057;47.830;19.046;2023-05-07T08:48:50;0.90;;;0.90;;
46348;SDS011;32057;47.830;19.046;2023-05-07T08:51:17;1.25;;;1.15;;
46348;SDS011;32057;47.830;19.046;2023-05-07T08:53:44;1.52;;;1.17;;
46348;SDS011;32057;47.830;19.046;2023-05-07T08:56:13;1.25;;;1.23;;
46348;SDS011;32057;47.830;19.046;2023-05-07T08:58:40;3.60;;;1.20;;
46348;SDS011;32057;47.830;19.046;2023-05-07T09:01:10;2.15;;;1.00;;
46348;SDS011;32057;47.830;19.046;2023-05-07T09:03:39;1.30;;;1.20;;
46348;SDS011;32057;47.830;19.046;2023-05-07T09:06:05;2.70;;;1.00;;
46348;SDS011;32057;47.830;19.046;2023-05-07T09:08:32;0.98;;;0.98;;
46348;SDS011;32057;47.830;19.046;2023-05-07T09:10:58;3.25;;;0.80;;
46348;SDS011;32057;47.830;19.046;2023-05-07T09:13:24;0.98;;;0.93;;
46348;SDS011;32057;47.830;19.046;2023-05-07T09:15:50;1.02;;;1.02;;
46348;SDS011;32057;47.830;19.046;2023-05-07T09:18:16;1.60;;;1.42;;
46348;SDS011;32057;47.830;19.046;2023-05-07T09:20:41;0.73;;;0.73;;
46348;SDS011;32057;47.830;19.046;2023-05-07T09:23:07;1.73;;;1.20;;
46348;SDS011;32057;47.830;19.046;2023-05-07T09:25:34;1.05;;;0.95;;
46348;SDS011;32057;47.830;19.046;2023-05-07T09:28:00;2.08;;;1.48;;
46348;SDS011;32057;47.830;19.046;2023-05-07T09:30:28;0.93;;;0.90;;
46348;SDS011;32057;47.830;19.046;2023-05-07T09:32:55;0.95;;;0.95;;
46348;SDS011;32057;47.830;19.046;2023-05-07T09:35:21;1.00;;;0.90;;
46348;SDS011;32057;47.830;19.046;2023-05-07T09:37:49;1.95;;;1.35;;
46348;SDS011;32057;47.830;19.046;2023-05-07T09:40:21;0.80;;;0.80;;
46348;SDS011;32057;47.830;19.046;2023-05-07T09:42:48;1.40;;;1.30;;
46348;SDS011;32057;47.830;19.046;2023-05-07T09:45:15;1.30;;;1.20;;
46348;SDS011;32057;47.830;19.046;2023-05-07T09:47:42;1.15;;;1.05;;
46348;SDS011;32057;47.830;19.046;2023-05-07T09:50:10;1.02;;;1.00;;
46348;SDS011;32057;47.830;19.046;2023-05-07T09:52:38;1.10;;;1.10;;
46348;SDS011;32057;47.830;19.046;2023-05-07T09:55:05;1.25;;;1.15;;
46348;SDS011;32057;47.830;19.046;2023-05-07T09:57:32;1.45;;;1.20;;
46348;SDS011;32057;47.830;19.046;2023-05-07T09:59:58;1.58;;;0.93;;
46348;SDS011;32057;47.830;19.046;2023-05-07T10:02:27;1.17;;;1.00;;
46348;SDS011;32057;47.830;19.046;2023-05-07T10:04:55;0.90;;;0.90;;
46348;SDS011;32057;47.830;19.046;2023-05-07T10:07:21;0.93;;;0.93;;
46348;SDS011;32057;47.830;19.046;2023-05-07T10:09:47;1.05;;;1.05;;
46348;SDS011;32057;47.830;19.046;2023-05-07T10:12:13;0.88;;;0.88;;
46348;SDS011;32057;47.830;19.046;2023-05-07T10:14:39;1.73;;;1.35;;
46348;SDS011;32057;47.830;19.046;2023-05-07T10:17:05;0.98;;;0.95;;
46348;SDS011;32057;47.830;19.046;2023-05-07T10:19:31;1.15;;;1.08;;
46348;SDS011;32057;47.830;19.046;2023-05-07T10:22:01;0.73;;;0.73;;
46348;SDS011;32057;47.830;19.046;2023-05-07T10:24:31;1.27;;;1.13;;
46348;SDS011;32057;47.830;19.046;2023-05-07T10:26:59;0.80;;;0.80;;
46348;SDS011;32057;47.830;19.046;2023-05-07T10:34:40;1.05;;;1.02;;
46348;SDS011;32057;47.830;19.046;2023-05-07T10:37:08;0.98;;;0.90;;
46348;SDS011;32057;47.830;19.046;2023-05-07T10:39:35;1.33;;;0.90;;
46348;SDS011;32057;47.830;19.046;2023-05-07T10:42:10;1.98;;;1.00;;
46348;SDS011;32057;47.830;19.046;2023-05-07T10:44:37;2.63;;;1.50;;
46348;SDS011;32057;47.830;19.046;2023-05-07T10:47:03;0.80;;;0.80;;
46348;SDS011;32057;47.830;19.046;2023-05-07T10:52:17;0.77;;;0.77;;
46348;SDS011;32057;47.830;19.046;2023-05-07T10:54:44;0.98;;;0.90;;
46348;SDS011;32057;47.830;19.046;2023-05-07T10:59:58;0.80;;;0.80;;
46348;SDS011;32057;47.830;19.046;2023-05-07T11:02:23;0.85;;;0.85;;
46348;SDS011;32057;47.830;19.046;2023-05-07T11:05:23;0.68;;;0.68;;
46348;SDS011;32057;47.830;19.046;2023-05-07T11:07:56;2.15;;;1.05;;
46348;SDS011;32057;47.830;19.046;2023-05-07T11:10:22;1.33;;;0.80;;
46348;SDS011;32057;47.830;19.046;2023-05-07T11:12:49;0.68;;;0.68;;
46348;SDS011;32057;47.830;19.046;2023-05-07T11:15:33;0.88;;;0.88;;
46348;SDS011;32057;47.830;19.046;2023-05-07T11:18:00;1.20;;;1.02;;
46348;SDS011;32057;47.830;19.046;2023-05-07T11:26:14;1.00;;;1.00;;
46348;SDS011;32057;47.830;19.046;2023-05-07T11:28:41;1.38;;;0.80;;
46348;SDS011;32057;47.830;19.046;2023-05-07T11:31:08;1.10;;;1.10;;
46348;SDS011;32057;47.830;19.046;2023-05-07T11:33:34;0.75;;;0.75;;
46348;SDS011;32057;47.830;19.046;2023-05-07T11:36:02;0.90;;;0.90;;
46348;SDS011;32057;47.830;19.046;2023-05-07T11:38:28;1.23;;;0.80;;
46348;SDS011;32057;47.830;19.046;2023-05-07T11:40:59;0.88;;;0.85;;
46348;SDS011;32057;47.830;19.046;2023-05-07T11:43:29;1.00;;;1.00;;
46348;SDS011;32057;47.830;19.046;2023-05-07T11:45:58;1.20;;;1.10;;
46348;SDS011;32057;47.830;19.046;2023-05-07T11:48:32;0.63;;;0.57;;
46348;SDS011;32057;47.830;19.046;2023-05-07T11:53:27;0.77;;;0.77;;
46348;SDS011;32057;47.830;19.046;2023-05-07T11:55:56;0.93;;;0.93;;
46348;SDS011;32057;47.830;19.046;2023-05-07T11:58:25;1.48;;;0.95;;
46348;SDS011;32057;47.830;19.046;2023-05-07T12:00:51;1.08;;;1.08;;
46348;SDS011;32057;47.830;19.046;2023-05-07T12:03:17;0.70;;;0.70;;
46348;SDS011;32057;47.830;19.046;2023-05-07T12:05:43;1.95;;;0.88;;
46348;SDS011;32057;47.830;19.046;2023-05-07T12:08:19;0.95;;;0.95;;
46348;SDS011;32057;47.830;19.046;2023-05-07T12:10:48;1.00;;;0.90;;
46348;SDS011;32057;47.830;19.046;2023-05-07T12:13:18;1.30;;;1.20;;
46348;SDS011;32057;47.830;19.046;2023-05-07T12:15:45;0.82;;;0.82;;
46348;SDS011;32057;47.830;19.046;2023-05-07T12:18:11;3.35;;;1.08;;
46348;SDS011;32057;47.830;19.046;2023-05-07T12:20:38;1.10;;;1.10;;
46348;SDS011;32057;47.830;19.046;2023-05-07T12:23:04;0.98;;;0.88;;
46348;SDS011;32057;47.830;19.046;2023-05-07T12:25:39;0.82;;;0.82;;
46348;SDS011;32057;47.830;19.046;2023-05-07T12:28:12;1.58;;;1.40;;
46348;SDS011;32057;47.830;19.046;2023-05-07T12:30:42;1.40;;;1.30;;
46348;SDS011;32057;47.830;19.046;2023-05-07T12:33:08;1.15;;;1.08;;
46348;SDS011;32057;47.830;19.046;2023-05-07T12:35:40;1.75;;;1.15;;
46348;SDS011;32057;47.830;19.046;2023-05-07T12:38:11;1.30;;;1.20;;
46348;SDS011;32057;47.830;19.046;2023-05-07T12:40:41;1.15;;;1.10;;
46348;SDS011;32057;47.830;19.046;2023-05-07T12:43:14;2.30;;;0.90;;
46348;SDS011;32057;47.830;19.046;2023-05-07T12:45:42;1.05;;;0.95;;
46348;SDS011;32057;47.830;19.046;2023-05-07T12:48:09;1.13;;;1.02;;
46348;SDS011;32057;47.830;19.046;2023-05-07T12:50:35;1.13;;;0.98;;
46348;SDS011;32057;47.830;19.046;2023-05-07T12:53:00;0.50;;;0.50;;
46348;SDS011;32057;47.830;19.046;2023-05-07T12:55:31;0.68;;;0.68;;
46348;SDS011;32057;47.830;19.046;2023-05-07T12:57:57;1.25;;;1.13;;
46348;SDS011;32057;47.830;19.046;2023-05-07T13:00:32;0.80;;;0.80;;
46348;SDS011;32057;47.830;19.046;2023-05-07T13:02:59;1.10;;;1.00;;
46348;SDS011;32057;47.830;19.046;2023-05-07T13:05:24;1.00;;;1.00;;
46348;SDS011;32057;47.830;19.046;2023-05-07T13:07:53;0.90;;;0.90;;
46348;SDS011;32057;47.830;19.046;2023-05-07T13:10:19;1.15;;;1.15;;
46348;SDS011;32057;47.830;19.046;2023-05-07T13:12:45;1.83;;;0.98;;
46348;SDS011;32057;47.830;19.046;2023-05-07T13:15:10;2.28;;;2.03;;
46348;SDS011;32057;47.830;19.046;2023-05-07T13:17:35;0.80;;;0.80;;
46348;SDS011;32057;47.830;19.046;2023-05-07T13:20:01;0.95;;;0.90;;
46348;SDS011;32057;47.830;19.046;2023-05-07T13:22:26;1.42;;;1.30;;
46348;SDS011;32057;47.830;19.046;2023-05-07T13:24:52;1.55;;;1.30;;
46348;SDS011;32057;47.830;19.046;2023-05-07T13:27:17;1.45;;;1.30;;
46348;SDS011;32057;47.830;19.046;2023-05-07T13:29:44;0.88;;;0.88;;
46348;SDS011;32057;47.830;19.046;2023-05-07T13:32:09;1.25;;;1.15;;
46348;SDS011;32057;47.830;19.046;2023-05-07T13:34:35;2.05;;;1.95;;
46348;SDS011;32057;47.830;19.046;2023-05-07T13:37:00;0.60;;;0.60;;
46348;SDS011;32057;47.830;19.046;2023-05-07T13:39:26;1.20;;;0.93;;
46348;SDS011;32057;47.830;19.046;2023-05-07T13:41:51;1.10;;;1.00;;
46348;SDS011;32057;47.830;19.046;2023-05-07T13:44:16;0.95;;;0.80;;
46348;SDS011;32057;47.830;19.046;2023-05-07T13:46:42;2.75;;;1.75;;
46348;SDS011;32057;47.830;19.046;2023-05-07T13:49:07;1.40;;;1.30;;
46348;SDS011;32057;47.830;19.046;2023-05-07T13:51:33;0.73;;;0.73;;
46348;SDS011;32057;47.830;19.046;2023-05-07T13:53:58;0.75;;;0.75;;
46348;SDS011;32057;47.830;19.046;2023-05-07T13:56:23;1.10;;;1.00;;
46348;SDS011;32057;47.830;19.046;2023-05-07T13:58:49;1.35;;;1.15;;
46348;SDS011;32057;47.830;19.046;2023-05-07T14:01:14;0.90;;;0.85;;
46348;SDS011;32057;47.830;19.046;2023-05-07T14:03:40;1.15;;;1.15;;
46348;SDS011;32057;47.830;19.046;2023-05-07T14:06:06;0.90;;;0.90;;
46348;SDS011;32057;47.830;19.046;2023-05-07T14:08:31;1.73;;;1.02;;
46348;SDS011;32057;47.830;19.046;2023-05-07T14:10:57;0.88;;;0.88;;
46348;SDS011;32057;47.830;19.046;2023-05-07T14:13:22;0.63;;;0.63;;
46348;SDS011;32057;47.830;19.046;2023-05-07T14:15:48;0.95;;;0.95;;
46348;SDS011;32057;47.830;19.046;2023-05-07T14:18:14;1.52;;;0.85;;
46348;SDS011;32057;47.830;19.046;2023-05-07T14:20:40;1.10;;;1.00;;
46348;SDS011;32057;47.830;19.046;2023-05-07T14:23:08;0.73;;;0.73;;
46348;SDS011;32057;47.830;19.046;2023-05-07T14:25:33;0.70;;;0.70;;
46348;SDS011;32057;47.830;19.046;2023-05-07T14:27:59;0.70;;;0.70;;
46348;SDS011;32057;47.830;19.046;2023-05-07T14:30:24;1.15;;;0.82;;
46348;SDS011;32057;47.830;19.046;2023-05-07T14:32:50;1.00;;;0.93;;
46348;SDS011;32057;47.830;19.046;2023-05-07T14:35:16;0.73;;;0.73;;
46348;SDS011;32057;47.830;19.046;2023-05-07T14:37:42;1.33;;;0.98;;
46348;SDS011;32057;47.830;19.046;2023-05-07T14:40:08;1.35;;;1.25;;
46348;SDS011;32057;47.830;19.046;2023-05-07T14:42:34;0.82;;;0.80;;
46348;SDS011;32057;47.830;19.046;2023-05-07T14:45:00;0.80;;;0.80;;
46348;SDS011;32057;47.830;19.046;2023-05-07T14:47:25;0.80;;;0.80;;